Aviation Digital Data Service (ADDS)

Output produced by METARs form (1330 UTC 16 August 2022)
found at http://aviationweather.gov/metar/data/
 
METAR text: KCVH 161315Z AUTO 00000KT 10SM CLR 12/10 A2983 RMK A01
Conditions at: KCVH (HOLLISTER MUNI , CA, US) observed 1315 UTC 16 August 2022
Temperature: 12.0°C (54°F)
Dewpoint: 10.0°C (50°F) [RH = 88%]
Pressure (altimeter): 29.83 inches Hg (1010.2 mb)
Winds: calm
Visibility: 10 or more miles (16+ km)
Ceiling: at least 12,000 feet AGL
Clouds: sky clear below 12,000 feet AGL
Weather: automated observation with no human augmentation;
there may or may not be significant weather present at this time